Terminal Aerodrome Forecast
Issued by NWS Mt. Holly, NJ

Home | Current Version | Previous Version | Text Only | Print | Product List | Glossary On
Versions: 1 2 3 4 5 6 7 8 9 10 11 12 13 14 15 16 17 18 19 20 21 22 23 24 25 26 27
000
FTUS41 KPHI 231700
TAFACY
TAF
KACY 231720Z 2318/2418 09005KT P6SM BKN250
     FM232300 08005KT P6SM BKN250
     FM241000 07008KT P6SM OVC200
     FM241600 09015KT P6SM OVC120=

USA.gov is the U.S. government's official web portal to all federal, state and local government web resources and services.